Time;durP1;ratioP1;P1;durP2;ratioP2;P2;SDS_P1;SDS_P2;PMS_P1;PMS_P2;Temp;Humidity;BMP_temperature;BMP_pressure;BME280_temperature;BME280_humidity;BME280_pressure;Samples;Min_cycle;Max_cycle;Signal;HPM_P1;HPM_P2
2021/12/06 00:00:58;;;;;;;12.52;6.55;;;;;;;;;;4396502;28;10000648;-75
2021/12/06 00:03:31;;;;;;;9.55;6.30;;;;;;;;;;5093732;28;20023;-74
2021/12/06 00:05:57;;;;;;;7.60;5.93;;;;;;;;;;5097350;28;20020;-75
2021/12/06 00:08:23;;;;;;;8.73;5.70;;;;;;;;;;5098496;28;20028;-74
2021/12/06 00:10:51;;;;;;;13.18;8.63;;;;;;;;;;5101287;28;20043;-74
2021/12/06 00:13:20;;;;;;;14.93;10.13;;;;;;;;;;5094044;28;20089;-74
2021/12/06 00:15:49;;;;;;;15.05;9.88;;;3.60;99.90;;;;;;5092059;28;20026;-73
2021/12/06 00:18:14;;;;;;;16.92;10.35;;;3.40;99.90;;;;;;5099082;28;20111;-74
2021/12/06 00:20:40;;;;;;;16.33;10.50;;;3.30;99.90;;;;;;5095298;28;20454;-74
2021/12/06 00:23:06;;;;;;;13.93;9.85;;;3.10;99.90;;;;;;5094015;28;20020;-74
2021/12/06 00:25:32;;;;;;;13.05;8.77;;;2.90;99.90;;;;;;5098889;28;20077;-74
2021/12/06 00:27:57;;;;;;;11.35;7.57;;;2.90;99.90;;;;;;5096695;28;20024;-74
2021/12/06 00:30:23;;;;;;;9.27;7.47;;;2.80;99.90;;;;;;5101335;28;20104;-74
2021/12/06 00:32:49;;;;;;;10.20;7.43;;;2.70;99.90;;;;;;5094022;28;20047;-74
2021/12/06 00:35:21;;;;;;;11.15;7.18;;;2.70;99.90;;;;;;5098233;28;20763;-74
2021/12/06 00:37:58;;;;;;;10.90;7.78;;;2.70;99.90;;;;;;5094058;28;20430;-74
2021/12/06 00:40:52;;;;;;;12.88;8.57;;;2.60;99.90;;;;;;5101826;28;20046;-74
2021/12/06 00:43:17;;;;;;;;;;;2.60;99.90;;;;;;5096520;28;20078;-74
2021/12/06 00:45:43;;;;;;;16.70;9.00;;;2.60;99.90;;;;;;5101528;28;19911;-75
2021/12/06 00:48:09;;;;;;;14.68;9.15;;;2.50;99.90;;;;;;5097619;28;20032;-74
2021/12/06 00:50:39;;;;;;;13.55;9.98;;;2.50;99.90;;;;;;5101298;28;20027;-74
2021/12/06 00:53:05;;;;;;;13.13;8.82;;;2.40;99.90;;;;;;5099702;28;20431;-74
2021/12/06 00:55:32;;;;;;;14.35;9.63;;;2.40;99.90;;;;;;5099314;28;20041;-74
2021/12/06 00:57:58;;;;;;;16.95;10.43;;;2.30;99.90;;;;;;5096532;28;20039;-74
2021/12/06 01:00:52;;;;;;;14.82;9.98;;;2.20;99.90;;;;;;5089424;28;20028;-74
2021/12/06 01:03:21;;;;;;;16.10;10.00;;;2.20;99.90;;;;;;5088112;28;20113;-74
2021/12/06 01:05:48;;;;;;;15.02;10.25;;;2.20;99.90;;;;;;5101126;28;20030;-73
2021/12/06 01:08:14;;;;;;;14.80;10.93;;;2.10;99.90;;;;;;5103319;28;20084;-74
2021/12/06 01:10:41;;;;;;;17.08;11.13;;;2.10;99.90;;;;;;5104260;28;20080;-73
2021/12/06 01:13:07;;;;;;;16.70;11.57;;;2.00;99.90;;;;;;5106129;28;20027;-74
2021/12/06 01:15:34;;;;;;;16.55;11.35;;;2.00;99.90;;;;;;5105150;28;20460;-75
2021/12/06 01:18:02;;;;;;;18.80;11.88;;;1.90;99.90;;;;;;5105796;28;20393;-73
2021/12/06 01:20:31;;;;;;;18.17;11.77;;;1.90;99.90;;;;;;5095088;28;20392;-73
2021/12/06 01:23:07;;;;;;;17.00;11.65;;;1.90;99.90;;;;;;5099303;28;20135;-74
2021/12/06 01:31:05;;;;;;;15.80;10.25;;;1.80;99.90;;;;;;5104098;28;20148;-73
2021/12/06 01:41:31;;;;;;;16.70;11.00;;;1.70;99.90;;;;;;5098214;28;20445;-73
2021/12/06 01:44:13;;;;;;;15.13;10.10;;;1.70;99.90;;;;;;5093819;28;20039;-73
2021/12/06 01:46:51;;;;;;;13.35;9.77;;;1.70;99.90;;;;;;5100540;28;20112;-73
2021/12/06 01:49:19;;;;;;;15.45;10.93;;;1.60;99.90;;;;;;5100760;28;20032;-74
2021/12/06 01:51:46;;;;;;;16.40;11.00;;;1.60;99.90;;;;;;5095274;28;20370;-73
2021/12/06 01:54:14;;;;;;;14.43;9.85;;;1.60;99.90;;;;;;5102934;28;20377;-73
2021/12/06 01:56:40;;;;;;;15.50;10.70;;;1.60;99.90;;;;;;5096883;27;20044;-74
2021/12/06 01:59:07;;;;;;;15.20;11.18;;;1.50;99.90;;;;;;5103565;28;20084;-73
2021/12/06 02:01:33;;;;;;;14.43;9.52;;;1.60;99.90;;;;;;5100442;28;20489;-73
2021/12/06 02:03:59;;;;;;;15.75;9.50;;;1.60;99.90;;;;;;5099887;28;20077;-73
2021/12/06 02:06:25;;;;;;;13.07;9.48;;;1.60;99.90;;;;;;5094389;28;20024;-74
2021/12/06 02:08:51;;;;;;;14.48;10.45;;;1.60;99.90;;;;;;5095184;28;20028;-73
2021/12/06 02:11:17;;;;;;;15.20;10.30;;;1.60;99.90;;;;;;5098489;28;20514;-73
2021/12/06 02:14:02;;;;;;;15.23;10.70;;;1.60;99.90;;;;;;5102258;27;20092;-73
2021/12/06 02:16:41;;;;;;;17.88;10.30;;;1.60;99.90;;;;;;5093900;28;20032;-73
2021/12/06 02:19:07;;;;;;;17.25;12.45;;;1.60;99.90;;;;;;5089233;28;20035;-73
2021/12/06 02:21:36;;;;;;;18.65;11.52;;;1.60;99.90;;;;;;5095844;28;20020;-73
2021/12/06 02:24:08;;;;;;;15.88;11.93;;;1.60;99.90;;;;;;5100192;28;20027;-74
2021/12/06 02:26:35;;;;;;;16.48;11.25;;;1.70;99.90;;;;;;5103486;28;20431;-73
2021/12/06 02:29:01;;;;;;;16.50;12.10;;;1.70;99.90;;;;;;5102388;28;20024;-73
2021/12/06 02:31:27;;;;;;;18.90;12.30;;;1.70;99.90;;;;;;5098143;28;20385;-73
2021/12/06 02:33:54;;;;;;;19.35;11.98;;;1.70;99.90;;;;;;5101226;28;20035;-73
2021/12/06 02:36:21;;;;;;;21.65;13.93;;;1.70;99.90;;;;;;5102852;28;20020;-73
2021/12/06 02:38:47;;;;;;;20.00;13.93;;;1.80;99.90;;;;;;5098460;27;20023;-74
2021/12/06 02:41:14;;;;;;;21.02;14.02;;;1.80;99.90;;;;;;5097740;28;20374;-73
2021/12/06 02:43:41;;;;;;;21.55;13.98;;;1.90;99.90;;;;;;5103806;28;20042;-73
2021/12/06 02:46:08;;;;;;;19.58;13.40;;;2.00;99.90;;;;;;5100064;27;20081;-74
2021/12/06 02:48:34;;;;;;;21.33;13.55;;;2.10;99.90;;;;;;5103704;27;20031;-74
2021/12/06 02:51:04;;;;;;;20.40;13.63;;;2.30;99.90;;;;;;5100808;27;20031;-74
2021/12/06 02:53:34;;;;;;;17.38;12.68;;;2.40;99.90;;;;;;5103399;27;20116;-73
2021/12/06 02:56:04;;;;;;;20.63;12.65;;;2.40;99.90;;;;;;5094063;27;20039;-73
2021/12/06 03:01:19;;;;;;;19.42;13.13;;;2.60;99.90;;;;;;5093969;27;20120;-73
2021/12/06 03:03:45;;;;;;;19.08;11.77;;;2.70;99.90;;;;;;5097017;28;20536;-74
2021/12/06 03:06:13;;;;;;;14.50;11.10;;;2.60;99.90;;;;;;5096879;27;20446;-73
2021/12/06 03:08:59;;;;;;;15.35;10.95;;;2.60;99.90;;;;;;5104353;28;20066;-74
2021/12/06 03:11:31;;;;;;;15.43;10.98;;;2.50;99.90;;;;;;5090726;28;20028;-74
2021/12/06 03:13:57;;;;;;;15.90;12.10;;;2.40;99.90;;;;;;5099274;28;20070;-74
2021/12/06 03:16:23;;;;;;;17.73;11.50;;;2.30;99.90;;;;;;5099298;28;20050;-73
2021/12/06 03:18:52;;;;;;;18.13;12.32;;;2.30;99.90;;;;;;5100676;27;20039;-73
2021/12/06 03:21:19;;;;;;;19.70;13.93;;;2.20;99.90;;;;;;5102175;28;20369;-74
2021/12/06 03:23:46;;;;;;;19.25;12.23;;;2.10;99.90;;;;;;5095084;27;20103;-73
2021/12/06 03:26:12;;;;;;;22.75;15.43;;;2.10;99.90;;;;;;5091321;28;20474;-73
2021/12/06 03:28:42;;;;;;;25.45;15.40;;;2.00;99.90;;;;;;5100525;28;20031;-73
2021/12/06 03:31:08;;;;;;;18.70;13.00;;;2.00;99.90;;;;;;5098924;27;20066;-74
2021/12/06 03:33:36;;;;;;;18.90;12.25;;;2.00;99.90;;;;;;5099231;28;20043;-73
2021/12/06 03:36:07;;;;;;;18.55;11.57;;;1.90;99.90;;;;;;5097405;28;20493;-74
2021/12/06 03:38:33;;;;;;;18.13;12.27;;;1.90;99.90;;;;;;5093787;28;20677;-73
2021/12/06 03:40:59;;;;;;;18.75;13.20;;;1.90;99.90;;;;;;5096465;28;20032;-74
2021/12/06 03:43:25;;;;;;;20.83;12.88;;;1.90;99.90;;;;;;5092174;28;20536;-74
2021/12/06 03:45:51;;;;;;;20.50;12.80;;;1.90;99.90;;;;;;5102872;28;20023;-74
2021/12/06 03:48:17;;;;;;;18.70;12.75;;;1.90;99.90;;;;;;5104257;28;20024;-74
2021/12/06 03:50:43;;;;;;;19.10;12.52;;;1.80;99.90;;;;;;5101345;28;20039;-73
2021/12/06 03:53:08;;;;;;;22.45;12.50;;;1.80;99.90;;;;;;5094423;28;20064;-73
2021/12/06 03:55:34;;;;;;;18.08;12.70;;;1.80;99.90;;;;;;5100503;28;20155;-73
2021/12/06 03:58:00;;;;;;;18.63;12.43;;;1.80;99.90;;;;;;5096255;28;20443;-74
2021/12/06 04:00:26;;;;;;;18.92;11.90;;;1.80;99.90;;;;;;5096813;28;20500;-73
2021/12/06 04:02:52;;;;;;;15.98;11.50;;;1.80;99.90;;;;;;5089643;28;20690;-74
2021/12/06 04:05:18;;;;;;;18.05;12.38;;;1.80;99.90;;;;;;5103017;28;20031;-73
2021/12/06 04:07:43;;;;;;;19.05;12.68;;;1.80;99.90;;;;;;5104841;28;20089;-74
2021/12/06 04:10:10;;;;;;;18.92;12.27;;;1.80;99.90;;;;;;5099271;28;20096;-74
2021/12/06 04:12:37;;;;;;;15.68;11.50;;;1.80;99.90;;;;;;5098334;28;20057;-74
2021/12/06 04:15:04;;;;;;;18.88;13.07;;;1.90;99.90;;;;;;5098256;28;20039;-74
2021/12/06 04:17:30;;;;;;;18.67;12.98;;;1.80;99.90;;;;;;5097325;28;20043;-74
2021/12/06 04:19:55;;;;;;;17.10;12.25;;;1.90;99.90;;;;;;5101881;28;20117;-73
2021/12/06 04:22:21;;;;;;;19.63;13.02;;;1.80;99.90;;;;;;5096883;28;20020;-74
2021/12/06 04:24:48;;;;;;;22.25;13.52;;;1.80;99.90;;;;;;5096425;28;20060;-73
2021/12/06 04:27:15;;;;;;;17.33;11.80;;;1.80;99.90;;;;;;5091825;28;20023;-74
2021/12/06 04:29:43;;;;;;;21.23;13.07;;;1.70;99.90;;;;;;5096769;28;20066;-74
2021/12/06 04:32:10;;;;;;;18.45;12.18;;;1.70;99.90;;;;;;5096337;28;20055;-73
2021/12/06 04:34:35;;;;;;;16.17;12.20;;;1.70;99.90;;;;;;5093888;28;20070;-73
2021/12/06 04:37:01;;;;;;;21.42;13.43;;;1.60;99.90;;;;;;5092863;28;20070;-74
2021/12/06 04:39:28;;;;;;;21.23;13.23;;;1.70;99.90;;;;;;5106329;28;20412;-73
2021/12/06 04:41:54;;;;;;;21.40;13.75;;;1.70;99.90;;;;;;5103309;28;22624;-73
2021/12/06 04:44:20;;;;;;;20.20;12.98;;;1.70;99.90;;;;;;5099015;27;20120;-73
2021/12/06 04:46:47;;;;;;;23.42;14.45;;;1.70;99.90;;;;;;5105580;28;20051;-73
2021/12/06 04:49:13;;;;;;;20.70;13.40;;;1.70;99.90;;;;;;5104925;28;20035;-73
2021/12/06 04:51:42;;;;;;;19.35;12.32;;;1.70;99.90;;;;;;5096467;27;20027;-73
2021/12/06 04:54:09;;;;;;;20.20;12.90;;;1.70;99.90;;;;;;5098704;27;20035;-74
2021/12/06 04:56:45;;;;;;;16.42;11.63;;;1.70;99.90;;;;;;5096373;28;20019;-73
2021/12/06 04:59:20;;;;;;;17.23;11.77;;;1.70;99.90;;;;;;5106692;27;20382;-74
2021/12/06 05:01:48;;;;;;;16.88;12.15;;;1.70;99.90;;;;;;5096358;28;20035;-73
2021/12/06 05:04:19;;;;;;;17.13;11.40;;;1.70;99.90;;;;;;5100559;27;20032;-74
2021/12/06 05:06:48;;;;;;;17.50;11.68;;;1.70;99.90;;;;;;5097908;27;20089;-74
2021/12/06 05:09:23;;;;;;;16.17;11.73;;;1.80;99.90;;;;;;5101344;28;20028;-73
2021/12/06 05:11:49;;;;;;;18.60;11.90;;;1.80;99.90;;;;;;5104232;28;20028;-74
2021/12/06 05:14:16;;;;;;;16.00;11.45;;;1.80;99.90;;;;;;5104607;28;20038;-74
2021/12/06 05:16:41;;;;;;;17.80;12.45;;;1.80;99.90;;;;;;5101692;28;20084;-74
2021/12/06 05:19:08;;;;;;;18.33;12.87;;;1.70;99.90;;;;;;5098253;27;20028;-74
2021/12/06 05:21:35;;;;;;;17.88;12.55;;;1.70;99.90;;;;;;5103074;28;20059;-74
2021/12/06 05:24:01;;;;;;;19.98;12.10;;;1.70;99.90;;;;;;5098054;27;20390;-74
2021/12/06 05:26:27;;;;;;;17.10;12.10;;;1.70;99.90;;;;;;5098689;27;20031;-73
2021/12/06 05:28:59;;;;;;;25.05;14.77;;;1.70;99.90;;;;;;5099706;28;20074;-73
2021/12/06 05:31:26;;;;;;;24.90;14.95;;;;;;;;;;5099879;28;20074;-74
2021/12/06 05:33:56;;;;;;;21.48;14.15;;;1.80;99.90;;;;;;5100685;28;20059;-74
2021/12/06 05:36:22;;;;;;;22.50;13.55;;;1.80;99.90;;;;;;5095497;27;20032;-74
2021/12/06 05:38:52;;;;;;;20.48;13.43;;;1.70;99.90;;;;;;5103311;27;20031;-74
2021/12/06 05:41:18;;;;;;;21.17;13.50;;;1.70;99.90;;;;;;5106815;28;20059;-73
2021/12/06 05:43:44;;;;;;;17.52;12.60;;;1.70;99.90;;;;;;5102910;27;20528;-74
2021/12/06 05:46:10;;;;;;;16.98;12.48;;;1.70;99.90;;;;;;5098776;27;20474;-73
2021/12/06 05:48:35;;;;;;;24.25;13.15;;;1.80;99.90;;;;;;5107895;28;20538;-73
2021/12/06 05:51:01;;;;;;;20.02;12.98;;;1.80;99.90;;;;;;5103658;28;20042;-73
2021/12/06 05:53:27;;;;;;;18.35;12.52;;;1.80;99.90;;;;;;5108780;28;20032;-73
2021/12/06 05:55:53;;;;;;;19.20;13.45;;;1.70;99.90;;;;;;5090376;28;20111;-73
2021/12/06 05:58:22;;;;;;;18.23;12.80;;;1.70;99.90;;;;;;5103615;28;20123;-73
2021/12/06 06:00:49;;;;;;;19.42;13.20;;;1.70;99.90;;;;;;5105161;28;20711;-73
2021/12/06 06:03:15;;;;;;;16.70;12.45;;;1.60;99.90;;;;;;5095825;28;20027;-73
2021/12/06 06:05:42;;;;;;;16.20;11.55;;;1.60;99.90;;;;;;5103572;27;20078;-73
2021/12/06 06:08:08;;;;;;;15.40;11.20;;;1.60;99.90;;;;;;5105412;28;20381;-73
2021/12/06 06:10:35;;;;;;;17.42;12.15;;;1.60;99.90;;;;;;5099392;28;20057;-73
2021/12/06 06:13:02;;;;;;;19.17;12.68;;;1.60;99.90;;;;;;5107748;28;20113;-73
2021/12/06 06:15:29;;;;;;;15.90;11.85;;;1.60;99.90;;;;;;5105327;28;20431;-73
2021/12/06 06:17:56;;;;;;;18.23;11.73;;;1.70;99.90;;;;;;5103981;28;20035;-73
2021/12/06 06:20:29;;;;;;;16.42;11.23;;;1.70;99.90;;;;;;5099656;28;20031;-73
2021/12/06 06:22:55;;;;;;;17.00;11.40;;;1.70;99.90;;;;;;5092637;27;20020;-73
2021/12/06 06:25:21;;;;;;;16.70;11.82;;;1.70;99.90;;;;;;5093575;28;20032;-74
2021/12/06 06:27:47;;;;;;;21.23;12.65;;;1.70;99.90;;;;;;5107150;28;20031;-73
2021/12/06 06:30:14;;;;;;;16.75;12.13;;;1.70;99.90;;;;;;5108768;28;20027;-73
2021/12/06 06:32:40;;;;;;;19.75;13.20;;;1.70;99.90;;;;;;5099949;28;20055;-73
2021/12/06 06:35:07;;;;;;;19.50;12.68;;;1.70;99.90;;;;;;5107495;28;20039;-73
2021/12/06 06:37:33;;;;;;;24.88;13.70;;;1.70;99.90;;;;;;5091483;28;20050;-73
2021/12/06 06:39:59;;;;;;;19.95;14.32;;;1.60;99.90;;;;;;5105998;28;20561;-73
2021/12/06 06:42:27;;;;;;;18.80;13.13;;;1.60;99.90;;;;;;5097479;28;20366;-73
2021/12/06 06:44:54;;;;;;;19.08;13.05;;;1.60;99.90;;;;;;5095722;28;20034;-73
2021/12/06 06:47:20;;;;;;;18.90;13.05;;;1.60;99.90;;;;;;5101710;28;21750;-73
2021/12/06 06:49:47;;;;;;;18.48;12.55;;;1.50;99.90;;;;;;5099861;28;20027;-73
2021/12/06 06:52:12;;;;;;;18.40;12.38;;;1.50;99.90;;;;;;5107151;28;20035;-73
2021/12/06 06:54:38;;;;;;;17.55;11.75;;;1.50;99.90;;;;;;5107979;28;20457;-74
2021/12/06 06:57:04;;;;;;;16.35;11.48;;;1.60;99.90;;;;;;5101935;28;20037;-74
2021/12/06 06:59:30;;;;;;;15.15;11.15;;;1.60;99.90;;;;;;5094013;28;20126;-74
2021/12/06 07:01:55;;;;;;;17.20;11.35;;;1.60;99.90;;;;;;5095787;28;20081;-73
2021/12/06 07:04:21;;;;;;;18.02;12.27;;;1.60;99.90;;;;;;5108808;28;20024;-74
2021/12/06 07:06:47;;;;;;;17.83;12.60;;;1.60;99.90;;;;;;5099644;28;20495;-73
2021/12/06 07:09:13;;;;;;;16.88;12.38;;;1.60;99.90;;;;;;5105829;28;20034;-73
2021/12/06 07:11:43;;;;;;;16.67;11.95;;;1.70;99.90;;;;;;5103177;28;20035;-72
2021/12/06 07:14:09;;;;;;;16.50;12.20;;;1.70;99.90;;;;;;5107138;28;20030;-73
2021/12/06 07:16:35;;;;;;;21.45;13.52;;;1.70;99.90;;;;;;5102081;28;20020;-72
2021/12/06 07:19:00;;;;;;;17.60;12.35;;;1.80;99.90;;;;;;5094309;28;20501;-73
2021/12/06 07:21:26;;;;;;;17.00;11.85;;;1.90;99.90;;;;;;5106232;27;20039;-73
2021/12/06 07:23:52;;;;;;;16.17;10.90;;;1.80;99.90;;;;;;5099161;28;20016;-73
2021/12/06 07:26:21;;;;;;;14.35;10.43;;;1.80;99.90;;;;;;5101816;28;20137;-73
2021/12/06 07:28:49;;;;;;;15.95;10.77;;;1.70;99.90;;;;;;5106293;28;20064;-73
2021/12/06 07:31:15;;;;;;;20.20;12.57;;;1.70;99.90;;;;;;5099503;28;20498;-73
2021/12/06 07:33:43;;;;;;;17.02;11.68;;;1.60;99.90;;;;;;5086756;28;20118;-73
2021/12/06 07:36:10;;;;;;;19.25;12.18;;;1.60;99.90;;;;;;5081206;28;20024;-73
2021/12/06 07:38:37;;;;;;;19.40;13.35;;;1.70;99.90;;;;;;5081550;28;20024;-73
2021/12/06 07:41:07;;;;;;;18.33;13.07;;;1.70;99.90;;;;;;5067596;28;20457;-73
2021/12/06 07:43:33;;;;;;;23.80;16.13;;;1.70;99.90;;;;;;5079272;28;20821;-73
2021/12/06 07:45:59;;;;;;;22.92;15.43;;;1.60;99.90;;;;;;5089407;28;20123;-73
2021/12/06 07:48:25;;;;;;;21.65;15.55;;;1.60;99.90;;;;;;5079913;28;20111;-73
2021/12/06 07:50:51;;;;;;;23.45;14.80;;;;;;;;;;5075016;28;20458;-73
2021/12/06 07:53:17;;;;;;;20.90;14.85;;;1.60;99.90;;;;;;5084163;28;20509;-73
2021/12/06 07:55:42;;;;;;;20.67;13.73;;;1.60;99.90;;;;;;5085535;28;20038;-74
2021/12/06 07:58:09;;;;;;;24.45;15.27;;;1.60;99.90;;;;;;5073010;28;20048;-73
2021/12/06 08:00:41;;;;;;;22.00;14.90;;;1.60;99.90;;;;;;5067281;28;20079;-73
2021/12/06 08:03:08;;;;;;;20.60;14.30;;;1.70;99.90;;;;;;5074583;28;20024;-73
2021/12/06 08:05:37;;;;;;;22.25;14.98;;;1.60;99.90;;;;;;5087965;28;20059;-73
2021/12/06 08:08:08;;;;;;;21.17;13.90;;;1.70;99.90;;;;;;5080953;28;20031;-73
2021/12/06 08:10:37;;;;;;;18.45;12.82;;;1.60;99.90;;;;;;5083963;28;20343;-73
2021/12/06 08:13:05;;;;;;;19.50;13.23;;;1.60;99.90;;;;;;5093745;28;20032;-73
2021/12/06 08:15:31;;;;;;;19.48;13.20;;;1.60;99.90;;;;;;5081208;28;20050;-73
2021/12/06 08:17:57;;;;;;;21.67;14.90;;;1.60;99.90;;;;;;5082319;28;20070;-73
2021/12/06 08:20:22;;;;;;;24.27;16.50;;;1.70;99.90;;;;;;5085814;28;20023;-73
2021/12/06 08:22:48;;;;;;;21.52;15.15;;;1.70;99.90;;;;;;5085294;28;20021;-73
2021/12/06 08:25:16;;;;;;;22.10;14.77;;;1.70;99.90;;;;;;5086143;28;20047;-73
2021/12/06 08:27:42;;;;;;;18.75;13.45;;;1.80;99.90;;;;;;5076066;28;20103;-73
2021/12/06 08:30:10;;;;;;;18.20;12.68;;;1.90;99.90;;;;;;5087698;28;20574;-73
2021/12/06 08:32:36;;;;;;;16.45;12.15;;;1.90;99.90;;;;;;5087962;28;20540;-73
2021/12/06 08:35:04;;;;;;;23.42;12.82;;;2.00;99.90;;;;;;5107195;28;20051;-73
2021/12/06 08:37:30;;;;;;;22.40;13.27;;;2.00;99.90;;;;;;5105448;28;20614;-72
2021/12/06 08:39:55;;;;;;;26.95;15.65;;;2.10;99.90;;;;;;5102370;28;20051;-74
2021/12/06 08:42:21;;;;;;;23.55;15.23;;;2.10;99.90;;;;;;5098440;27;20565;-73
2021/12/06 08:44:47;;;;;;;22.08;14.55;;;2.10;99.90;;;;;;5099022;28;20114;-73
2021/12/06 08:47:15;;;;;;;23.17;14.20;;;2.10;99.90;;;;;;5104233;27;20546;-73
2021/12/06 08:49:41;;;;;;;23.17;14.95;;;2.10;99.90;;;;;;5098500;28;20031;-73
2021/12/06 08:52:06;;;;;;;30.85;17.50;;;2.10;99.90;;;;;;5100964;28;20020;-71
2021/12/06 08:54:32;;;;;;;33.05;20.52;;;2.10;99.90;;;;;;5092461;28;20096;-73
2021/12/06 08:57:01;;;;;;;29.08;17.58;;;2.10;99.90;;;;;;5098921;28;20139;-73
2021/12/06 08:59:27;;;;;;;22.27;15.20;;;2.20;99.90;;;;;;5103579;28;20162;-73
2021/12/06 09:01:56;;;;;;;21.98;14.88;;;2.20;99.90;;;;;;5098295;28;20118;-73
2021/12/06 09:04:22;;;;;;;24.52;15.20;;;2.20;99.90;;;;;;5105812;27;20049;-74
2021/12/06 09:06:51;;;;;;;22.55;14.90;;;2.20;99.90;;;;;;5098853;28;20103;-72
2021/12/06 09:09:18;;;;;;;22.08;14.88;;;2.20;99.90;;;;;;5100974;28;20027;-72
2021/12/06 09:11:45;;;;;;;23.27;14.45;;;2.30;99.90;;;;;;5107060;28;20540;-72
2021/12/06 09:14:12;;;;;;;22.77;14.10;;;2.20;99.90;;;;;;5107695;28;20397;-72
2021/12/06 09:16:39;;;;;;;22.98;14.77;;;2.20;99.90;;;;;;5092977;27;20050;-73
2021/12/06 09:19:08;;;;;;;22.17;14.60;;;2.20;99.90;;;;;;5100429;28;20028;-74
2021/12/06 09:21:38;;;;;;;24.35;16.65;;;2.30;99.90;;;;;;5110069;27;20031;-72
2021/12/06 09:24:07;;;;;;;23.65;15.45;;;2.30;99.90;;;;;;5104644;28;20409;-72
2021/12/06 09:26:34;;;;;;;24.83;15.77;;;2.30;99.90;;;;;;5100595;28;20393;-71
2021/12/06 09:29:00;;;;;;;25.00;14.95;;;2.30;99.90;;;;;;5097876;28;20102;-72
2021/12/06 09:31:26;;;;;;;23.63;14.07;;;2.40;99.90;;;;;;5106018;28;20118;-74
2021/12/06 09:33:52;;;;;;;19.45;13.57;;;2.50;99.90;;;;;;5106940;28;20167;-72
2021/12/06 09:36:19;;;;;;;20.98;13.20;;;2.60;99.90;;;;;;5107042;28;20057;-73
2021/12/06 09:38:45;;;;;;;20.15;13.75;;;2.60;99.90;;;;;;5109473;27;20106;-75
2021/12/06 09:41:18;;;;;;;23.73;14.10;;;2.60;99.90;;;;;;5097982;28;20038;-73
2021/12/06 09:43:44;;;;;;;23.20;14.88;;;2.70;99.90;;;;;;5097806;28;20063;-73
2021/12/06 09:46:11;;;;;;;22.40;14.80;;;2.70;99.90;;;;;;5110509;28;20048;-73
2021/12/06 09:48:39;;;;;;;22.77;15.35;;;2.70;99.90;;;;;;5110247;28;20027;-73
2021/12/06 09:51:09;;;;;;;23.92;15.50;;;2.70;99.90;;;;;;5102398;27;20038;-75
2021/12/06 09:53:36;;;;;;;23.65;15.57;;;2.70;99.90;;;;;;5108093;27;20393;-75
2021/12/06 09:56:09;;;;;;;23.52;16.15;;;2.70;99.90;;;;;;5103153;27;20397;-73
2021/12/06 09:58:35;;;;;;;22.92;15.80;;;2.70;99.90;;;;;;5100923;28;20096;-73
2021/12/06 10:01:16;;;;;;;29.30;18.27;;;2.80;99.90;;;;;;5108370;28;20605;-73
2021/12/06 10:03:44;;;;;;;35.35;18.65;;;2.90;99.90;;;;;;5100138;27;20032;-73
2021/12/06 10:06:10;;;;;;;31.67;16.65;;;2.90;99.90;;;;;;5095996;28;20032;-74
2021/12/06 10:08:38;;;;;;;24.33;15.32;;;2.80;99.90;;;;;;5096561;28;20073;-73
2021/12/06 10:11:06;;;;;;;24.00;15.27;;;2.80;99.90;;;;;;5107281;28;20536;-73
2021/12/06 10:13:33;;;;;;;22.33;15.05;;;2.90;99.90;;;;;;5099400;28;20027;-73
2021/12/06 10:15:59;;;;;;;24.40;15.60;;;3.00;99.90;;;;;;5105198;28;20776;-74
2021/12/06 10:18:25;;;;;;;24.60;15.93;;;3.00;99.90;;;;;;5095760;28;20311;-73
2021/12/06 10:20:51;;;;;;;27.70;16.30;;;3.00;99.90;;;;;;5102534;28;20517;-74
2021/12/06 10:23:18;;;;;;;32.42;21.20;;;3.00;99.90;;;;;;5088193;27;20072;-74
2021/12/06 10:25:47;;;;;;;30.83;19.60;;;3.00;99.90;;;;;;5097330;28;20080;-73
2021/12/06 10:28:15;;;;;;;34.10;19.42;;;3.00;99.90;;;;;;5097275;28;20046;-75
2021/12/06 10:30:51;;;;;;;26.55;17.70;;;2.90;99.90;;;;;;5102413;28;20080;-72
2021/12/06 10:33:20;;;;;;;26.42;17.80;;;2.90;99.90;;;;;;5077907;28;20052;-75
2021/12/06 10:35:52;;;;;;;29.35;18.67;;;2.80;99.90;;;;;;5091004;28;20079;-75
2021/12/06 10:38:24;;;;;;;26.30;18.73;;;2.80;99.90;;;;;;5068997;28;20037;-74
2021/12/06 10:40:55;;;;;;;39.67;23.33;;;2.80;99.90;;;;;;5088008;28;20031;-74
2021/12/06 10:43:21;;;;;;;31.50;20.40;;;2.80;99.90;;;;;;5095393;28;20035;-73
2021/12/06 10:45:48;;;;;;;32.53;19.98;;;2.80;99.90;;;;;;5107692;28;20141;-74
2021/12/06 10:48:21;;;;;;;27.95;18.25;;;2.90;99.90;;;;;;5086443;28;20085;-74
2021/12/06 10:50:51;;;;;;;19.23;13.20;;;2.90;99.90;;;;;;5088158;28;20040;-74
2021/12/06 10:53:41;;;;;;;33.47;21.05;;;2.90;99.90;;;;;;5091006;28;20029;-71
2021/12/06 10:56:17;;;;;;;33.97;20.08;;;3.00;99.90;;;;;;5097076;28;20037;-74
2021/12/06 10:58:43;;;;;;;27.20;18.85;;;3.00;99.90;;;;;;5082317;28;20028;-72
2021/12/06 11:01:15;;;;;;;26.67;17.40;;;3.10;99.90;;;;;;5092483;28;20078;-73
2021/12/06 11:03:54;;;;;;;28.73;18.40;;;3.20;99.90;;;;;;5081764;28;20409;-75
2021/12/06 11:06:41;;;;;;;27.40;18.13;;;3.30;99.90;;;;;;5077823;28;20030;-74
2021/12/06 11:09:07;;;;;;;30.95;18.73;;;3.40;99.90;;;;;;5088270;28;20096;-74
2021/12/06 11:11:35;;;;;;;26.23;18.58;;;3.50;99.90;;;;;;5073907;28;20489;-74
2021/12/06 11:14:05;;;;;;;27.92;17.40;;;3.60;99.90;;;;;;5084990;28;20043;-74
2021/12/06 11:16:33;;;;;;;25.25;16.98;;;3.70;99.90;;;;;;5093734;28;20040;-75
2021/12/06 11:19:05;;;;;;;22.13;15.02;;;3.70;99.90;;;;;;5093554;28;20072;-73
2021/12/06 11:21:31;;;;;;;28.23;17.35;;;3.70;99.90;;;;;;5092876;28;20035;-73
2021/12/06 11:24:13;;;;;;;26.95;16.58;;;3.70;99.90;;;;;;5093908;28;20113;-74
2021/12/06 11:26:52;;;;;;;32.33;19.02;;;3.70;99.90;;;;;;5089785;28;20560;-73
2021/12/06 11:29:26;;;;;;;23.40;16.42;;;3.80;99.90;;;;;;5092131;28;20528;-73
2021/12/06 11:32:14;;;;;;;27.02;16.77;;;3.90;99.90;;;;;;5084086;28;20464;-74
2021/12/06 11:34:48;;;;;;;24.38;16.05;;;4.00;99.90;;;;;;5096316;28;20724;-73
2021/12/06 11:37:16;;;;;;;23.50;15.90;;;4.20;99.90;;;;;;5096472;28;20172;-74
2021/12/06 11:39:44;;;;;;;24.33;14.90;;;4.60;99.90;;;;;;5085742;28;20042;-74
2021/12/06 11:42:10;;;;;;;22.65;15.10;;;4.90;99.90;;;;;;5084584;28;20475;-74
2021/12/06 11:44:42;;;;;;;24.75;15.27;;;5.10;99.90;;;;;;5076644;28;20044;-73
2021/12/06 11:47:11;;;;;;;23.07;15.47;;;5.30;99.90;;;;;;5084614;28;20411;-74
2021/12/06 11:49:48;;;;;;;25.13;15.25;;;5.40;99.90;;;;;;5082461;28;20028;-74
2021/12/06 11:52:19;;;;;;;24.15;15.13;;;5.40;99.90;;;;;;5087555;28;20065;-73
2021/12/06 11:55:00;;;;;;;20.95;14.18;;;;;;;;;;5090131;28;20106;-73
2021/12/06 11:57:42;;;;;;;22.45;14.18;;;5.30;99.90;;;;;;5078412;28;20066;-73
2021/12/06 12:00:16;;;;;;;22.45;14.60;;;5.20;99.90;;;;;;5081781;28;20036;-74
2021/12/06 12:02:51;;;;;;;20.98;14.48;;;5.20;99.90;;;;;;5075219;28;20020;-73
2021/12/06 12:05:21;;;;;;;21.65;15.50;;;5.10;99.90;;;;;;5089523;28;20079;-73
2021/12/06 12:07:57;;;;;;;23.35;16.20;;;5.00;99.90;;;;;;5074379;28;20028;-73
2021/12/06 12:10:34;;;;;;;21.65;15.00;;;4.90;99.90;;;;;;5078993;28;20107;-73
2021/12/06 12:13:01;;;;;;;22.88;15.27;;;4.90;99.90;;;;;;5076618;28;20035;-73
2021/12/06 12:15:27;;;;;;;22.55;15.63;;;4.90;99.90;;;;;;5079728;28;20040;-73
2021/12/06 12:17:53;;;;;;;24.08;15.90;;;5.00;99.90;;;;;;5085848;28;20023;-74
2021/12/06 12:20:23;;;;;;;25.05;15.77;;;5.00;99.90;;;;;;5092600;28;20110;-73
2021/12/06 12:22:56;;;;;;;24.17;14.75;;;5.00;99.90;;;;;;5076232;28;20016;-73
2021/12/06 12:25:34;;;;;;;21.73;14.43;;;5.10;99.90;;;;;;5075546;28;20120;-72
2021/12/06 12:30:31;;;;;;;24.83;15.80;;;5.10;99.90;;;;;;5085842;28;20578;-73
2021/12/06 12:32:58;;;;;;;26.65;15.65;;;5.20;99.90;;;;;;5085456;28;20055;-73
2021/12/06 12:35:24;;;;;;;22.33;15.48;;;5.20;99.90;;;;;;5092313;28;20136;-72
2021/12/06 12:37:52;;;;;;;23.65;15.25;;;5.30;99.90;;;;;;5103036;28;20034;-75
2021/12/06 12:40:21;;;;;;;21.88;15.57;;;5.30;99.90;;;;;;5094449;28;20032;-74
2021/12/06 12:43:03;;;;;;;20.92;15.13;;;5.40;99.90;;;;;;5104478;28;20032;-73
2021/12/06 12:45:40;;;;;;;19.67;14.03;;;5.30;99.90;;;;;;5107794;28;20044;-73
2021/12/06 12:48:08;;;;;;;21.92;13.82;;;5.40;99.90;;;;;;5101985;28;20032;-73
2021/12/06 12:50:33;;;;;;;21.15;14.95;;;5.30;99.90;;;;;;5098031;28;20028;-75
2021/12/06 12:53:11;;;;;;;20.38;14.40;;;5.40;99.90;;;;;;5094955;28;20038;-75
2021/12/06 12:55:41;;;;;;;23.20;13.93;;;5.30;99.90;;;;;;5100987;28;20024;-73
2021/12/06 12:58:14;;;;;;;25.23;16.27;;;5.30;99.90;;;;;;5097594;28;20072;-73
2021/12/06 13:01:01;;;;;;;;;;;5.30;99.90;;;;;;5098632;28;20040;-73
2021/12/06 13:03:39;;;;;;;25.17;15.00;;;5.20;99.90;;;;;;5103172;28;19909;-73
2021/12/06 13:06:14;;;;;;;25.83;16.40;;;5.10;99.90;;;;;;5098391;27;20024;-74